createdAt,value
2022-11-29T00:09:05.232Z,16
2022-11-29T00:19:09.817Z,10
2022-11-29T00:29:14.669Z,10
2022-11-29T00:39:20.842Z,11
2022-11-29T00:49:25.569Z,10
2022-11-29T00:59:31.223Z,10
2022-11-29T01:09:38.167Z,14
2022-11-29T01:19:50.893Z,13
2022-11-29T01:29:48.088Z,12
2022-11-29T01:39:55.255Z,10
2022-11-29T01:50:02.925Z,8
2022-11-29T02:00:09.732Z,8
2022-11-29T02:10:15.860Z,9
2022-11-29T02:20:21.139Z,9
2022-11-29T02:30:28.435Z,7
2022-11-29T02:40:33.389Z,8
2022-11-29T02:50:37.273Z,8
2022-11-29T03:00:41.462Z,9
2022-11-29T03:10:48.441Z,8
2022-11-29T03:20:55.830Z,10
2022-11-29T03:31:02.314Z,14
2022-11-29T03:41:07.123Z,10
2022-11-29T03:51:12.687Z,9
2022-11-29T04:01:21.218Z,12
2022-11-29T04:11:27.480Z,10
2022-11-29T04:21:35.057Z,11
2022-11-29T04:31:40.745Z,8
2022-11-29T04:41:46.469Z,10
2022-11-29T04:51:52.649Z,7
2022-11-29T05:01:58.048Z,7
2022-11-29T05:12:11.104Z,7
2022-11-29T05:22:10.430Z,7
2022-11-29T05:32:17.222Z,6
2022-11-29T05:42:23.712Z,4
2022-11-29T05:52:30.333Z,6
2022-11-29T06:02:36.212Z,6
2022-11-29T06:12:42.490Z,7
2022-11-29T06:22:49.224Z,9
2022-11-29T06:32:53.474Z,8
2022-11-29T06:42:59.769Z,9
2022-11-29T06:53:08.237Z,11
2022-11-29T07:03:14.283Z,8
2022-11-29T07:13:18.932Z,9
2022-11-29T07:23:25.539Z,5
2022-11-29T07:33:42.654Z,5
2022-11-29T07:43:38.816Z,5
2022-11-29T07:53:44.706Z,5
2022-11-29T08:03:49.987Z,7
2022-11-29T08:13:55.836Z,7
2022-11-29T08:24:01.430Z,6
2022-11-29T08:34:06.156Z,5
2022-11-29T08:44:11.127Z,5
2022-11-29T08:54:16.175Z,5
2022-11-29T09:04:45.914Z,6
2022-11-29T09:14:52.641Z,5
2022-11-29T09:24:59.833Z,8
2022-11-29T09:35:05.071Z,5
2022-11-29T09:45:09.877Z,7
2022-11-29T09:55:13.987Z,5
2022-11-29T10:05:20.402Z,5
2022-11-29T10:15:28.864Z,3
2022-11-29T10:25:32.235Z,4
2022-11-29T10:35:36.535Z,5
2022-11-29T10:45:42.594Z,4
2022-11-29T10:55:47.132Z,6
2022-11-29T11:05:52.266Z,5
2022-11-29T11:15:57.742Z,5
2022-11-29T11:26:02.842Z,6
2022-11-29T11:36:08.739Z,6
2022-11-29T11:46:18.521Z,9
2022-11-29T11:56:18.366Z,9
2022-11-29T12:06:28.156Z,3
2022-11-29T12:16:29.443Z,4
2022-11-29T12:27:06.075Z,4
2022-11-29T12:37:00.626Z,4
2022-11-29T12:47:36.687Z,4
2022-11-29T12:57:30.200Z,7
2022-11-29T13:07:37.807Z,6
2022-11-29T13:17:41.529Z,4
2022-11-29T13:27:48.149Z,5
2022-11-29T13:37:56.739Z,6
2022-11-29T13:48:03.217Z,4
2022-11-29T13:58:48.481Z,4
2022-11-29T14:09:19.524Z,8
2022-11-29T14:19:13.003Z,4
2022-11-29T14:29:18.577Z,7
2022-11-29T14:39:23.867Z,4
2022-11-29T14:49:30.302Z,5
2022-11-29T14:59:36.784Z,6
2022-11-29T15:09:44.190Z,7
2022-11-29T15:19:50.477Z,5
2022-11-29T15:29:55.907Z,10
2022-11-29T15:40:02.163Z,7
2022-11-29T15:50:07.062Z,14
2022-11-29T16:00:12.768Z,22
2022-11-29T16:10:18.692Z,27
2022-11-29T16:20:23.675Z,9
2022-11-29T16:30:30.803Z,9
2022-11-29T16:40:36.925Z,18
2022-11-29T16:50:43.792Z,7
2022-11-29T17:00:48.956Z,6
2022-11-29T17:10:55.598Z,6
2022-11-29T17:21:02.718Z,6
2022-11-29T17:31:06.382Z,8
2022-11-29T17:41:13.313Z,10
2022-11-29T17:51:52.946Z,7
2022-11-29T18:01:44.603Z,11
2022-11-29T18:11:51.762Z,21
2022-11-29T18:21:57.487Z,6
2022-11-29T18:32:04.308Z,8
2022-11-29T18:42:16.931Z,8
2022-11-29T18:52:23.400Z,9
2022-11-29T19:02:27.548Z,9
2022-11-29T19:12:32.423Z,15
2022-11-29T19:22:38.707Z,9
2022-11-29T19:32:45.037Z,27
2022-11-29T19:42:51.031Z,14
2022-11-29T19:52:55.362Z,17
2022-11-29T20:03:02.131Z,6
2022-11-29T20:13:07.646Z,8
2022-11-29T20:23:13.010Z,7
2022-11-29T20:33:18.615Z,9
2022-11-29T20:43:25.558Z,11
2022-11-29T20:53:29.425Z,8
2022-11-29T21:03:36.931Z,11
2022-11-29T21:13:43.372Z,6
2022-11-29T21:23:50.801Z,6
2022-11-29T21:33:56.589Z,10
2022-11-29T21:44:47.544Z,9
2022-11-29T21:54:40.697Z,15
2022-11-29T22:04:46.696Z,14
2022-11-29T22:14:49.960Z,13
2022-11-29T22:24:56.883Z,15
2022-11-29T22:35:02.541Z,16
2022-11-29T22:45:07.177Z,15
2022-11-29T22:55:12.679Z,17
2022-11-29T23:05:18.670Z,18
2022-11-29T23:15:32.357Z,17
2022-11-29T23:25:30.981Z,16
2022-11-29T23:35:35.973Z,15
2022-11-29T23:45:41.130Z,20
2022-11-29T23:55:47.807Z,21
